sensor_id;sensor_type;location;lat;lon;timestamp;temperature;humidity
20345;DHT22;10330;48.816;9.278;2022-07-29T00:01:14;22.10;99.90
20345;DHT22;10330;48.816;9.278;2022-07-29T00:03:41;22.10;99.90
20345;DHT22;10330;48.816;9.278;2022-07-29T00:06:07;22.00;99.90
20345;DHT22;10330;48.816;9.278;2022-07-29T00:08:33;22.00;99.90
20345;DHT22;10330;48.816;9.278;2022-07-29T00:10:59;21.90;99.90
20345;DHT22;10330;48.816;9.278;2022-07-29T00:13:25;21.90;99.90
20345;DHT22;10330;48.816;9.278;2022-07-29T00:15:52;21.90;99.90
20345;DHT22;10330;48.816;9.278;2022-07-29T00:18:18;21.80;99.90
20345;DHT22;10330;48.816;9.278;2022-07-29T00:20:44;21.90;99.90
20345;DHT22;10330;48.816;9.278;2022-07-29T00:23:10;21.90;99.90
20345;DHT22;10330;48.816;9.278;2022-07-29T00:25:36;21.80;99.90
20345;DHT22;10330;48.816;9.278;2022-07-29T00:28:02;21.70;99.90
20345;DHT22;10330;48.816;9.278;2022-07-29T00:30:29;21.70;99.90
20345;DHT22;10330;48.816;9.278;2022-07-29T00:32:55;21.60;99.90
20345;DHT22;10330;48.816;9.278;2022-07-29T00:35:21;21.60;99.90
20345;DHT22;10330;48.816;9.278;2022-07-29T00:38:06;21.60;99.90
20345;DHT22;10330;48.816;9.278;2022-07-29T00:40:32;21.60;99.90
20345;DHT22;10330;48.816;9.278;2022-07-29T00:42:59;21.60;99.90
20345;DHT22;10330;48.816;9.278;2022-07-29T00:45:25;21.60;99.90
20345;DHT22;10330;48.816;9.278;2022-07-29T00:47:51;21.60;99.90
20345;DHT22;10330;48.816;9.278;2022-07-29T00:50:18;21.50;99.90
20345;DHT22;10330;48.816;9.278;2022-07-29T00:52:44;21.50;99.90
20345;DHT22;10330;48.816;9.278;2022-07-29T00:55:13;21.60;99.90
20345;DHT22;10330;48.816;9.278;2022-07-29T00:57:41;21.50;99.90
20345;DHT22;10330;48.816;9.278;2022-07-29T01:00:10;21.50;99.90
20345;DHT22;10330;48.816;9.278;2022-07-29T01:02:37;21.50;99.90
20345;DHT22;10330;48.816;9.278;2022-07-29T01:05:05;21.40;99.90
20345;DHT22;10330;48.816;9.278;2022-07-29T01:07:36;21.40;99.90
20345;DHT22;10330;48.816;9.278;2022-07-29T01:10:08;21.40;99.90
20345;DHT22;10330;48.816;9.278;2022-07-29T01:12:37;21.40;99.90
20345;DHT22;10330;48.816;9.278;2022-07-29T01:15:05;21.50;99.90
20345;DHT22;10330;48.816;9.278;2022-07-29T01:20:05;21.50;99.90
20345;DHT22;10330;48.816;9.278;2022-07-29T01:28:53;21.50;99.90
20345;DHT22;10330;48.816;9.278;2022-07-29T01:31:33;21.50;99.90
20345;DHT22;10330;48.816;9.278;2022-07-29T01:34:07;21.50;99.90
20345;DHT22;10330;48.816;9.278;2022-07-29T01:36:48;21.50;99.90
20345;DHT22;10330;48.816;9.278;2022-07-29T01:39:42;21.60;99.90
20345;DHT22;10330;48.816;9.278;2022-07-29T01:48:13;21.40;99.90
20345;DHT22;10330;48.816;9.278;2022-07-29T01:50:47;21.40;99.90
20345;DHT22;10330;48.816;9.278;2022-07-29T01:53:21;21.30;99.90
20345;DHT22;10330;48.816;9.278;2022-07-29T01:55:50;21.20;99.90
20345;DHT22;10330;48.816;9.278;2022-07-29T01:58:18;21.10;99.90
20345;DHT22;10330;48.816;9.278;2022-07-29T02:00:46;21.10;99.90
20345;DHT22;10330;48.816;9.278;2022-07-29T02:03:16;21.10;99.90
20345;DHT22;10330;48.816;9.278;2022-07-29T02:05:46;21.10;99.90
20345;DHT22;10330;48.816;9.278;2022-07-29T02:08:13;21.00;99.90
20345;DHT22;10330;48.816;9.278;2022-07-29T02:10:42;21.00;99.90
20345;DHT22;10330;48.816;9.278;2022-07-29T02:13:10;21.00;99.90
20345;DHT22;10330;48.816;9.278;2022-07-29T02:15:37;20.90;99.90
20345;DHT22;10330;48.816;9.278;2022-07-29T02:18:08;20.90;99.90
20345;DHT22;10330;48.816;9.278;2022-07-29T02:20:36;20.90;99.90
20345;DHT22;10330;48.816;9.278;2022-07-29T02:23:04;20.90;99.90
20345;DHT22;10330;48.816;9.278;2022-07-29T02:25:32;20.90;99.90
20345;DHT22;10330;48.816;9.278;2022-07-29T02:27:59;20.90;99.90
20345;DHT22;10330;48.816;9.278;2022-07-29T02:30:28;20.90;99.90
20345;DHT22;10330;48.816;9.278;2022-07-29T02:32:55;20.90;99.90
20345;DHT22;10330;48.816;9.278;2022-07-29T02:35:22;20.90;99.90
20345;DHT22;10330;48.816;9.278;2022-07-29T02:37:50;20.90;99.90
20345;DHT22;10330;48.816;9.278;2022-07-29T02:40:38;20.80;99.90
20345;DHT22;10330;48.816;9.278;2022-07-29T02:43:06;20.80;99.90
20345;DHT22;10330;48.816;9.278;2022-07-29T02:45:33;20.70;99.90
20345;DHT22;10330;48.816;9.278;2022-07-29T02:48:06;20.70;99.90
20345;DHT22;10330;48.816;9.278;2022-07-29T02:50:37;20.60;99.90
20345;DHT22;10330;48.816;9.278;2022-07-29T02:53:23;20.60;99.90
20345;DHT22;10330;48.816;9.278;2022-07-29T02:55:57;20.60;99.90
20345;DHT22;10330;48.816;9.278;2022-07-29T02:58:31;20.60;99.90
20345;DHT22;10330;48.816;9.278;2022-07-29T03:01:01;20.60;99.90
20345;DHT22;10330;48.816;9.278;2022-07-29T03:03:32;20.60;99.90
20345;DHT22;10330;48.816;9.278;2022-07-29T03:06:01;20.60;99.90
20345;DHT22;10330;48.816;9.278;2022-07-29T03:08:28;20.60;99.90
20345;DHT22;10330;48.816;9.278;2022-07-29T03:10:55;20.50;99.90
20345;DHT22;10330;48.816;9.278;2022-07-29T03:13:22;20.50;99.90
20345;DHT22;10330;48.816;9.278;2022-07-29T03:15:48;20.50;99.90
20345;DHT22;10330;48.816;9.278;2022-07-29T03:18:15;20.40;99.90
20345;DHT22;10330;48.816;9.278;2022-07-29T03:20:42;20.40;99.90
20345;DHT22;10330;48.816;9.278;2022-07-29T03:23:08;20.30;99.90
20345;DHT22;10330;48.816;9.278;2022-07-29T03:25:35;20.30;99.90
20345;DHT22;10330;48.816;9.278;2022-07-29T03:28:02;20.40;99.90
20345;DHT22;10330;48.816;9.278;2022-07-29T03:30:28;20.40;99.90
20345;DHT22;10330;48.816;9.278;2022-07-29T03:32:56;20.40;99.90
20345;DHT22;10330;48.816;9.278;2022-07-29T03:35:22;20.40;99.90
20345;DHT22;10330;48.816;9.278;2022-07-29T03:37:49;20.40;99.90
20345;DHT22;10330;48.816;9.278;2022-07-29T03:40:23;20.40;99.90
20345;DHT22;10330;48.816;9.278;2022-07-29T03:42:53;20.30;99.90
20345;DHT22;10330;48.816;9.278;2022-07-29T03:45:21;20.40;99.90
20345;DHT22;10330;48.816;9.278;2022-07-29T03:47:51;20.40;99.90
20345;DHT22;10330;48.816;9.278;2022-07-29T03:50:20;20.40;99.90
20345;DHT22;10330;48.816;9.278;2022-07-29T03:52:47;20.40;99.90
20345;DHT22;10330;48.816;9.278;2022-07-29T03:55:14;20.40;99.90
20345;DHT22;10330;48.816;9.278;2022-07-29T03:57:41;20.40;99.90
20345;DHT22;10330;48.816;9.278;2022-07-29T04:00:09;20.40;99.90
20345;DHT22;10330;48.816;9.278;2022-07-29T04:02:36;20.40;99.90
20345;DHT22;10330;48.816;9.278;2022-07-29T04:05:02;20.40;99.90
20345;DHT22;10330;48.816;9.278;2022-07-29T04:07:29;20.40;99.90
20345;DHT22;10330;48.816;9.278;2022-07-29T04:09:55;20.40;99.90
20345;DHT22;10330;48.816;9.278;2022-07-29T04:12:22;20.40;99.90
20345;DHT22;10330;48.816;9.278;2022-07-29T04:14:48;20.40;99.90
20345;DHT22;10330;48.816;9.278;2022-07-29T04:17:14;20.30;99.90
20345;DHT22;10330;48.816;9.278;2022-07-29T04:19:40;20.30;99.90
20345;DHT22;10330;48.816;9.278;2022-07-29T04:22:07;20.40;99.90
20345;DHT22;10330;48.816;9.278;2022-07-29T04:24:34;20.40;99.90
20345;DHT22;10330;48.816;9.278;2022-07-29T04:27:00;20.50;99.90
20345;DHT22;10330;48.816;9.278;2022-07-29T04:29:27;20.40;99.90
20345;DHT22;10330;48.816;9.278;2022-07-29T04:31:53;20.40;99.90
20345;DHT22;10330;48.816;9.278;2022-07-29T04:34:19;20.40;99.90
20345;DHT22;10330;48.816;9.278;2022-07-29T04:36:46;20.40;99.90
20345;DHT22;10330;48.816;9.278;2022-07-29T04:39:12;20.40;99.90
20345;DHT22;10330;48.816;9.278;2022-07-29T04:41:39;20.40;99.90
20345;DHT22;10330;48.816;9.278;2022-07-29T04:44:08;20.30;99.90
20345;DHT22;10330;48.816;9.278;2022-07-29T04:46:34;20.40;99.90
20345;DHT22;10330;48.816;9.278;2022-07-29T04:49:02;20.30;99.90
20345;DHT22;10330;48.816;9.278;2022-07-29T04:51:29;20.20;99.90
20345;DHT22;10330;48.816;9.278;2022-07-29T04:53:55;20.20;99.90
20345;DHT22;10330;48.816;9.278;2022-07-29T04:56:22;20.30;99.90
20345;DHT22;10330;48.816;9.278;2022-07-29T04:58:48;20.30;99.90
20345;DHT22;10330;48.816;9.278;2022-07-29T05:01:14;20.40;99.90
20345;DHT22;10330;48.816;9.278;2022-07-29T05:03:41;20.50;99.90
20345;DHT22;10330;48.816;9.278;2022-07-29T05:06:07;20.50;99.90
20345;DHT22;10330;48.816;9.278;2022-07-29T05:11:02;20.60;99.90
20345;DHT22;10330;48.816;9.278;2022-07-29T05:13:29;20.60;99.90
20345;DHT22;10330;48.816;9.278;2022-07-29T05:15:55;20.70;99.90
20345;DHT22;10330;48.816;9.278;2022-07-29T05:18:25;20.70;99.90
20345;DHT22;10330;48.816;9.278;2022-07-29T05:20:51;20.60;99.90
20345;DHT22;10330;48.816;9.278;2022-07-29T05:23:17;20.60;99.90
20345;DHT22;10330;48.816;9.278;2022-07-29T05:25:43;20.60;99.90
20345;DHT22;10330;48.816;9.278;2022-07-29T05:28:10;20.70;99.90
20345;DHT22;10330;48.816;9.278;2022-07-29T05:30:36;20.70;99.90
20345;DHT22;10330;48.816;9.278;2022-07-29T05:33:02;20.60;99.90
20345;DHT22;10330;48.816;9.278;2022-07-29T05:35:28;20.60;99.90
20345;DHT22;10330;48.816;9.278;2022-07-29T05:37:54;20.80;99.90
20345;DHT22;10330;48.816;9.278;2022-07-29T05:40:20;20.90;99.90
20345;DHT22;10330;48.816;9.278;2022-07-29T05:42:47;21.00;99.90
20345;DHT22;10330;48.816;9.278;2022-07-29T05:45:13;21.00;99.90
20345;DHT22;10330;48.816;9.278;2022-07-29T05:47:39;21.10;99.90
20345;DHT22;10330;48.816;9.278;2022-07-29T05:50:06;21.20;99.90
20345;DHT22;10330;48.816;9.278;2022-07-29T05:52:32;21.30;99.90
20345;DHT22;10330;48.816;9.278;2022-07-29T05:54:58;21.40;99.90
20345;DHT22;10330;48.816;9.278;2022-07-29T05:57:26;21.50;99.90
20345;DHT22;10330;48.816;9.278;2022-07-29T05:59:53;21.60;99.90
20345;DHT22;10330;48.816;9.278;2022-07-29T06:02:20;21.60;99.90
20345;DHT22;10330;48.816;9.278;2022-07-29T06:04:46;21.70;99.90
20345;DHT22;10330;48.816;9.278;2022-07-29T06:07:12;21.80;99.90
20345;DHT22;10330;48.816;9.278;2022-07-29T06:09:38;21.80;99.90
20345;DHT22;10330;48.816;9.278;2022-07-29T06:12:05;21.70;99.90
20345;DHT22;10330;48.816;9.278;2022-07-29T06:14:31;21.50;99.90
20345;DHT22;10330;48.816;9.278;2022-07-29T06:17:03;21.60;99.90
20345;DHT22;10330;48.816;9.278;2022-07-29T06:19:30;21.60;99.90
20345;DHT22;10330;48.816;9.278;2022-07-29T06:21:56;21.80;99.90
20345;DHT22;10330;48.816;9.278;2022-07-29T06:24:22;22.10;99.90
20345;DHT22;10330;48.816;9.278;2022-07-29T06:26:48;22.30;99.90
20345;DHT22;10330;48.816;9.278;2022-07-29T06:29:14;22.40;99.90
20345;DHT22;10330;48.816;9.278;2022-07-29T06:31:41;22.40;99.90
20345;DHT22;10330;48.816;9.278;2022-07-29T06:34:07;22.40;99.90
20345;DHT22;10330;48.816;9.278;2022-07-29T06:36:37;22.40;99.90
20345;DHT22;10330;48.816;9.278;2022-07-29T06:39:06;22.30;99.90
20345;DHT22;10330;48.816;9.278;2022-07-29T06:41:33;22.40;99.90
20345;DHT22;10330;48.816;9.278;2022-07-29T06:44:08;22.40;99.90
20345;DHT22;10330;48.816;9.278;2022-07-29T06:46:34;22.70;99.90
20345;DHT22;10330;48.816;9.278;2022-07-29T06:49:01;22.70;99.90
20345;DHT22;10330;48.816;9.278;2022-07-29T06:51:28;22.60;99.90
20345;DHT22;10330;48.816;9.278;2022-07-29T06:54:03;22.60;99.90
20345;DHT22;10330;48.816;9.278;2022-07-29T06:56:32;22.60;99.90
20345;DHT22;10330;48.816;9.278;2022-07-29T06:58:59;22.60;99.90
20345;DHT22;10330;48.816;9.278;2022-07-29T07:01:25;22.50;99.90
20345;DHT22;10330;48.816;9.278;2022-07-29T07:03:51;22.60;99.90
20345;DHT22;10330;48.816;9.278;2022-07-29T07:06:17;22.60;99.90
20345;DHT22;10330;48.816;9.278;2022-07-29T07:08:44;22.60;99.90
20345;DHT22;10330;48.816;9.278;2022-07-29T07:11:10;22.60;99.90
20345;DHT22;10330;48.816;9.278;2022-07-29T07:13:36;22.60;99.90
20345;DHT22;10330;48.816;9.278;2022-07-29T07:16:03;22.90;99.90
20345;DHT22;10330;48.816;9.278;2022-07-29T07:18:30;23.00;99.90
20345;DHT22;10330;48.816;9.278;2022-07-29T07:20:56;23.20;99.90
20345;DHT22;10330;48.816;9.278;2022-07-29T07:23:23;23.40;99.90
20345;DHT22;10330;48.816;9.278;2022-07-29T07:25:49;23.50;99.90
20345;DHT22;10330;48.816;9.278;2022-07-29T07:28:16;23.60;99.90
20345;DHT22;10330;48.816;9.278;2022-07-29T07:30:42;23.60;99.90
20345;DHT22;10330;48.816;9.278;2022-07-29T07:33:08;23.70;99.90
20345;DHT22;10330;48.816;9.278;2022-07-29T07:35:35;23.90;99.90
20345;DHT22;10330;48.816;9.278;2022-07-29T07:38:01;24.00;99.90
20345;DHT22;10330;48.816;9.278;2022-07-29T07:40:27;24.10;99.90
20345;DHT22;10330;48.816;9.278;2022-07-29T07:42:53;24.10;99.90
20345;DHT22;10330;48.816;9.278;2022-07-29T07:45:19;24.20;99.90
20345;DHT22;10330;48.816;9.278;2022-07-29T07:47:45;24.30;99.90
20345;DHT22;10330;48.816;9.278;2022-07-29T07:50:12;24.40;99.90
20345;DHT22;10330;48.816;9.278;2022-07-29T07:52:53;24.50;99.90
20345;DHT22;10330;48.816;9.278;2022-07-29T07:55:19;24.50;99.90
20345;DHT22;10330;48.816;9.278;2022-07-29T07:57:46;24.60;99.90
20345;DHT22;10330;48.816;9.278;2022-07-29T08:00:13;24.60;99.90
20345;DHT22;10330;48.816;9.278;2022-07-29T08:02:40;24.70;99.90
20345;DHT22;10330;48.816;9.278;2022-07-29T08:05:08;24.80;99.90
20345;DHT22;10330;48.816;9.278;2022-07-29T08:07:35;24.80;99.90
20345;DHT22;10330;48.816;9.278;2022-07-29T08:10:02;24.80;99.90
20345;DHT22;10330;48.816;9.278;2022-07-29T08:12:29;24.80;99.90
20345;DHT22;10330;48.816;9.278;2022-07-29T08:14:56;24.90;99.90
20345;DHT22;10330;48.816;9.278;2022-07-29T08:17:22;24.90;99.90
20345;DHT22;10330;48.816;9.278;2022-07-29T08:19:48;24.90;99.90
20345;DHT22;10330;48.816;9.278;2022-07-29T08:22:15;24.90;99.90
20345;DHT22;10330;48.816;9.278;2022-07-29T08:24:41;25.00;99.90
20345;DHT22;10330;48.816;9.278;2022-07-29T08:27:18;25.00;99.90
20345;DHT22;10330;48.816;9.278;2022-07-29T08:29:45;25.10;99.90
20345;DHT22;10330;48.816;9.278;2022-07-29T08:32:12;25.20;99.90
20345;DHT22;10330;48.816;9.278;2022-07-29T08:34:38;25.20;99.90
20345;DHT22;10330;48.816;9.278;2022-07-29T08:37:04;25.20;99.90
20345;DHT22;10330;48.816;9.278;2022-07-29T08:39:30;25.20;99.90
20345;DHT22;10330;48.816;9.278;2022-07-29T08:41:57;25.20;99.90
20345;DHT22;10330;48.816;9.278;2022-07-29T08:44:23;25.20;99.90
20345;DHT22;10330;48.816;9.278;2022-07-29T08:46:49;25.20;99.90
20345;DHT22;10330;48.816;9.278;2022-07-29T08:49:16;25.20;99.90
20345;DHT22;10330;48.816;9.278;2022-07-29T08:51:43;25.20;99.90
20345;DHT22;10330;48.816;9.278;2022-07-29T08:54:10;25.10;99.90
20345;DHT22;10330;48.816;9.278;2022-07-29T08:56:38;25.20;99.90
20345;DHT22;10330;48.816;9.278;2022-07-29T08:59:07;25.10;99.90
20345;DHT22;10330;48.816;9.278;2022-07-29T09:01:37;25.10;99.90
20345;DHT22;10330;48.816;9.278;2022-07-29T09:04:09;25.10;99.90
20345;DHT22;10330;48.816;9.278;2022-07-29T09:06:39;25.10;99.90
20345;DHT22;10330;48.816;9.278;2022-07-29T09:09:07;25.20;99.90
20345;DHT22;10330;48.816;9.278;2022-07-29T09:11:34;25.30;99.90
20345;DHT22;10330;48.816;9.278;2022-07-29T09:14:00;25.40;99.90
20345;DHT22;10330;48.816;9.278;2022-07-29T09:16:47;25.50;99.90
20345;DHT22;10330;48.816;9.278;2022-07-29T09:19:30;25.60;99.90
20345;DHT22;10330;48.816;9.278;2022-07-29T09:21:59;25.60;99.90
20345;DHT22;10330;48.816;9.278;2022-07-29T09:24:39;25.70;99.90
20345;DHT22;10330;48.816;9.278;2022-07-29T09:27:25;25.80;99.90
20345;DHT22;10330;48.816;9.278;2022-07-29T09:29:59;25.80;99.90
20345;DHT22;10330;48.816;9.278;2022-07-29T09:32:26;25.90;99.90
20345;DHT22;10330;48.816;9.278;2022-07-29T09:35:29;26.10;99.90
20345;DHT22;10330;48.816;9.278;2022-07-29T09:37:55;26.10;99.90
20345;DHT22;10330;48.816;9.278;2022-07-29T09:40:24;26.20;99.90
20345;DHT22;10330;48.816;9.278;2022-07-29T09:42:52;26.20;99.90
20345;DHT22;10330;48.816;9.278;2022-07-29T09:45:31;26.10;99.90
20345;DHT22;10330;48.816;9.278;2022-07-29T09:47:58;26.10;99.90
20345;DHT22;10330;48.816;9.278;2022-07-29T09:50:39;26.20;99.90
20345;DHT22;10330;48.816;9.278;2022-07-29T09:53:06;26.40;99.90
20345;DHT22;10330;48.816;9.278;2022-07-29T09:55:32;26.50;99.90
20345;DHT22;10330;48.816;9.278;2022-07-29T10:00:43;26.50;99.90
20345;DHT22;10330;48.816;9.278;2022-07-29T10:03:09;26.40;99.90
20345;DHT22;10330;48.816;9.278;2022-07-29T10:05:36;26.40;99.90
20345;DHT22;10330;48.816;9.278;2022-07-29T10:08:03;26.40;99.90
20345;DHT22;10330;48.816;9.278;2022-07-29T10:10:35;26.50;99.90
20345;DHT22;10330;48.816;9.278;2022-07-29T10:13:07;26.70;99.90
20345;DHT22;10330;48.816;9.278;2022-07-29T10:15:37;26.90;99.90
20345;DHT22;10330;48.816;9.278;2022-07-29T10:18:08;27.10;99.90
20345;DHT22;10330;48.816;9.278;2022-07-29T10:20:39;27.40;99.90
20345;DHT22;10330;48.816;9.278;2022-07-29T10:23:05;27.40;99.90
20345;DHT22;10330;48.816;9.278;2022-07-29T10:25:32;27.50;99.90
20345;DHT22;10330;48.816;9.278;2022-07-29T10:27:58;27.60;99.90
20345;DHT22;10330;48.816;9.278;2022-07-29T10:30:25;27.60;99.90
20345;DHT22;10330;48.816;9.278;2022-07-29T10:33:16;27.60;99.90
20345;DHT22;10330;48.816;9.278;2022-07-29T10:39:00;27.40;99.90
20345;DHT22;10330;48.816;9.278;2022-07-29T10:44:09;26.90;99.90
20345;DHT22;10330;48.816;9.278;2022-07-29T10:46:40;26.80;99.90
20345;DHT22;10330;48.816;9.278;2022-07-29T10:49:15;26.80;99.90
20345;DHT22;10330;48.816;9.278;2022-07-29T10:54:37;26.60;99.90
20345;DHT22;10330;48.816;9.278;2022-07-29T10:59:41;26.40;99.90
20345;DHT22;10330;48.816;9.278;2022-07-29T11:05:00;26.20;99.90
20345;DHT22;10330;48.816;9.278;2022-07-29T11:07:27;25.80;99.90
20345;DHT22;10330;48.816;9.278;2022-07-29T11:15:11;25.10;99.90
20345;DHT22;10330;48.816;9.278;2022-07-29T11:20:50;24.80;99.90
20345;DHT22;10330;48.816;9.278;2022-07-29T11:24:21;24.70;99.90
20345;DHT22;10330;48.816;9.278;2022-07-29T11:27:12;24.70;99.90
20345;DHT22;10330;48.816;9.278;2022-07-29T11:30:20;24.40;99.90
20345;DHT22;10330;48.816;9.278;2022-07-29T11:33:29;23.70;99.90
20345;DHT22;10330;48.816;9.278;2022-07-29T11:36:36;23.40;99.90
20345;DHT22;10330;48.816;9.278;2022-07-29T11:40:14;23.30;99.90
20345;DHT22;10330;48.816;9.278;2022-07-29T11:43:54;23.30;99.90
20345;DHT22;10330;48.816;9.278;2022-07-29T11:46:51;23.10;99.90
20345;DHT22;10330;48.816;9.278;2022-07-29T11:49:24;23.00;99.90
20345;DHT22;10330;48.816;9.278;2022-07-29T11:51:53;22.90;99.90
20345;DHT22;10330;48.816;9.278;2022-07-29T11:54:49;22.80;99.90
20345;DHT22;10330;48.816;9.278;2022-07-29T11:57:19;22.70;99.90
20345;DHT22;10330;48.816;9.278;2022-07-29T11:59:47;22.80;99.90
20345;DHT22;10330;48.816;9.278;2022-07-29T12:02:14;22.90;99.90
20345;DHT22;10330;48.816;9.278;2022-07-29T12:04:56;23.20;99.90
20345;DHT22;10330;48.816;9.278;2022-07-29T12:07:32;23.40;99.90
20345;DHT22;10330;48.816;9.278;2022-07-29T12:09:58;23.40;99.90
20345;DHT22;10330;48.816;9.278;2022-07-29T12:12:25;23.60;99.90
20345;DHT22;10330;48.816;9.278;2022-07-29T12:14:53;23.70;99.90
20345;DHT22;10330;48.816;9.278;2022-07-29T12:17:27;23.80;99.90
20345;DHT22;10330;48.816;9.278;2022-07-29T12:19:55;24.10;99.90
20345;DHT22;10330;48.816;9.278;2022-07-29T12:25:46;24.40;99.90
20345;DHT22;10330;48.816;9.278;2022-07-29T12:28:15;24.60;99.90
20345;DHT22;10330;48.816;9.278;2022-07-29T12:30:46;24.90;99.90
20345;DHT22;10330;48.816;9.278;2022-07-29T12:33:23;25.10;99.90
20345;DHT22;10330;48.816;9.278;2022-07-29T12:36:11;25.40;99.90
20345;DHT22;10330;48.816;9.278;2022-07-29T12:39:20;25.20;99.90
20345;DHT22;10330;48.816;9.278;2022-07-29T12:41:57;25.20;99.90
20345;DHT22;10330;48.816;9.278;2022-07-29T12:44:41;25.10;99.90
20345;DHT22;10330;48.816;9.278;2022-07-29T12:47:32;25.10;99.90
20345;DHT22;10330;48.816;9.278;2022-07-29T12:50:12;24.90;99.90
20345;DHT22;10330;48.816;9.278;2022-07-29T12:52:45;24.80;99.90
20345;DHT22;10330;48.816;9.278;2022-07-29T12:55:11;24.80;99.90
20345;DHT22;10330;48.816;9.278;2022-07-29T12:57:48;24.70;99.90
20345;DHT22;10330;48.816;9.278;2022-07-29T13:00:15;24.60;99.90
20345;DHT22;10330;48.816;9.278;2022-07-29T13:02:42;24.30;99.90
20345;DHT22;10330;48.816;9.278;2022-07-29T13:05:10;24.00;99.90
20345;DHT22;10330;48.816;9.278;2022-07-29T13:07:41;23.80;99.90
20345;DHT22;10330;48.816;9.278;2022-07-29T13:13:06;23.40;99.90
20345;DHT22;10330;48.816;9.278;2022-07-29T13:16:04;23.30;99.90
20345;DHT22;10330;48.816;9.278;2022-07-29T13:21:57;23.00;99.90
20345;DHT22;10330;48.816;9.278;2022-07-29T13:25:02;22.90;99.90
20345;DHT22;10330;48.816;9.278;2022-07-29T13:31:16;22.80;99.90
20345;DHT22;10330;48.816;9.278;2022-07-29T13:40:58;22.30;99.90
20345;DHT22;10330;48.816;9.278;2022-07-29T13:43:25;21.90;99.90
20345;DHT22;10330;48.816;9.278;2022-07-29T13:45:51;21.90;99.90
20345;DHT22;10330;48.816;9.278;2022-07-29T13:48:24;21.90;99.90
20345;DHT22;10330;48.816;9.278;2022-07-29T13:50:50;21.70;99.90
20345;DHT22;10330;48.816;9.278;2022-07-29T13:53:44;21.80;99.90
20345;DHT22;10330;48.816;9.278;2022-07-29T13:56:31;22.00;99.90
20345;DHT22;10330;48.816;9.278;2022-07-29T13:58:58;22.10;99.90
20345;DHT22;10330;48.816;9.278;2022-07-29T14:01:24;22.30;99.90
20345;DHT22;10330;48.816;9.278;2022-07-29T14:03:51;22.50;99.90
20345;DHT22;10330;48.816;9.278;2022-07-29T14:06:18;22.80;99.90
20345;DHT22;10330;48.816;9.278;2022-07-29T14:08:45;23.00;99.90
20345;DHT22;10330;48.816;9.278;2022-07-29T14:11:11;23.40;99.90
20345;DHT22;10330;48.816;9.278;2022-07-29T14:13:37;23.60;99.90
20345;DHT22;10330;48.816;9.278;2022-07-29T14:16:04;23.80;99.90
20345;DHT22;10330;48.816;9.278;2022-07-29T14:18:36;23.80;99.90
20345;DHT22;10330;48.816;9.278;2022-07-29T14:21:02;24.10;99.90
20345;DHT22;10330;48.816;9.278;2022-07-29T14:23:29;24.30;99.90
20345;DHT22;10330;48.816;9.278;2022-07-29T14:25:55;24.50;99.90
20345;DHT22;10330;48.816;9.278;2022-07-29T14:28:22;24.60;99.90
20345;DHT22;10330;48.816;9.278;2022-07-29T14:30:48;24.50;99.90
20345;DHT22;10330;48.816;9.278;2022-07-29T14:33:14;24.30;99.90
20345;DHT22;10330;48.816;9.278;2022-07-29T14:35:40;24.20;99.90
20345;DHT22;10330;48.816;9.278;2022-07-29T14:38:07;24.10;99.90
20345;DHT22;10330;48.816;9.278;2022-07-29T14:40:33;23.90;99.90
20345;DHT22;10330;48.816;9.278;2022-07-29T14:42:59;23.80;99.90
20345;DHT22;10330;48.816;9.278;2022-07-29T14:45:26;23.60;99.90
20345;DHT22;10330;48.816;9.278;2022-07-29T14:47:54;23.60;99.90
20345;DHT22;10330;48.816;9.278;2022-07-29T14:50:20;23.60;99.90
20345;DHT22;10330;48.816;9.278;2022-07-29T14:52:49;23.70;99.90
20345;DHT22;10330;48.816;9.278;2022-07-29T14:55:15;23.60;99.90
20345;DHT22;10330;48.816;9.278;2022-07-29T14:57:42;23.60;99.90
20345;DHT22;10330;48.816;9.278;2022-07-29T15:00:10;23.60;99.90
20345;DHT22;10330;48.816;9.278;2022-07-29T15:02:37;23.70;99.90
20345;DHT22;10330;48.816;9.278;2022-07-29T15:05:04;23.60;99.90
20345;DHT22;10330;48.816;9.278;2022-07-29T15:07:30;23.60;99.90
20345;DHT22;10330;48.816;9.278;2022-07-29T15:09:57;23.70;99.90
20345;DHT22;10330;48.816;9.278;2022-07-29T15:12:26;23.80;99.90
20345;DHT22;10330;48.816;9.278;2022-07-29T15:14:53;23.90;99.90
20345;DHT22;10330;48.816;9.278;2022-07-29T15:17:19;23.90;99.90
20345;DHT22;10330;48.816;9.278;2022-07-29T15:19:46;24.00;99.90
20345;DHT22;10330;48.816;9.278;2022-07-29T15:22:12;24.10;99.90
20345;DHT22;10330;48.816;9.278;2022-07-29T15:24:45;24.20;99.90
20345;DHT22;10330;48.816;9.278;2022-07-29T15:27:11;24.20;99.90
20345;DHT22;10330;48.816;9.278;2022-07-29T15:29:41;24.30;99.90
20345;DHT22;10330;48.816;9.278;2022-07-29T15:32:11;24.30;99.90
20345;DHT22;10330;48.816;9.278;2022-07-29T15:34:40;24.30;99.90
20345;DHT22;10330;48.816;9.278;2022-07-29T15:37:06;24.40;99.90
20345;DHT22;10330;48.816;9.278;2022-07-29T15:39:33;24.40;99.90
20345;DHT22;10330;48.816;9.278;2022-07-29T15:42:06;24.30;99.90
20345;DHT22;10330;48.816;9.278;2022-07-29T15:44:32;24.30;99.90
20345;DHT22;10330;48.816;9.278;2022-07-29T15:47:02;24.30;99.90
20345;DHT22;10330;48.816;9.278;2022-07-29T15:49:32;24.20;99.90
20345;DHT22;10330;48.816;9.278;2022-07-29T15:52:00;24.20;99.90
20345;DHT22;10330;48.816;9.278;2022-07-29T15:54:27;24.20;99.90
20345;DHT22;10330;48.816;9.278;2022-07-29T15:56:54;24.20;99.90
20345;DHT22;10330;48.816;9.278;2022-07-29T15:59:21;24.20;99.90
20345;DHT22;10330;48.816;9.278;2022-07-29T16:01:47;24.30;99.90
20345;DHT22;10330;48.816;9.278;2022-07-29T16:04:14;24.20;99.90
20345;DHT22;10330;48.816;9.278;2022-07-29T16:06:41;24.10;99.90
20345;DHT22;10330;48.816;9.278;2022-07-29T16:09:08;24.10;99.90
20345;DHT22;10330;48.816;9.278;2022-07-29T16:11:37;24.10;99.90
20345;DHT22;10330;48.816;9.278;2022-07-29T16:14:04;24.10;99.90
20345;DHT22;10330;48.816;9.278;2022-07-29T16:16:30;24.20;99.90
20345;DHT22;10330;48.816;9.278;2022-07-29T16:18:57;24.30;99.90
20345;DHT22;10330;48.816;9.278;2022-07-29T16:21:23;24.30;99.90
20345;DHT22;10330;48.816;9.278;2022-07-29T16:23:50;24.40;99.90
20345;DHT22;10330;48.816;9.278;2022-07-29T16:26:17;24.40;99.90
20345;DHT22;10330;48.816;9.278;2022-07-29T16:28:43;24.30;99.90
20345;DHT22;10330;48.816;9.278;2022-07-29T16:31:09;24.30;99.90
20345;DHT22;10330;48.816;9.278;2022-07-29T16:33:35;24.30;99.90
20345;DHT22;10330;48.816;9.278;2022-07-29T16:36:02;24.30;99.90
20345;DHT22;10330;48.816;9.278;2022-07-29T16:38:28;24.20;99.90
20345;DHT22;10330;48.816;9.278;2022-07-29T16:40:55;24.10;99.90
20345;DHT22;10330;48.816;9.278;2022-07-29T16:43:21;24.10;99.90
20345;DHT22;10330;48.816;9.278;2022-07-29T16:45:47;24.00;99.90
20345;DHT22;10330;48.816;9.278;2022-07-29T16:48:13;23.80;99.90
20345;DHT22;10330;48.816;9.278;2022-07-29T16:51:00;23.70;99.90